Time;durP1;ratioP1;P1;durP2;ratioP2;P2;SDS_P1;SDS_P2;PMS_P1;PMS_P2;Temp;Humidity;BMP_temperature;BMP_pressure;BME280_temperature;BME280_humidity;BME280_pressure;Samples;Min_cycle;Max_cycle;Signal;HPM_P1;HPM_P2
2023/08/15 00:00:26;;;;;;;;;2.33;2.33;;;;;22.18;85.25;101197.63;5087853;27;45263;-75
2023/08/15 00:02:51;;;;;;;;;3.33;2.00;;;;;22.16;86.13;101198.72;5095573;27;45568;-76
2023/08/15 00:05:16;;;;;;;;;6.00;2.00;;;;;22.17;86.05;101201.28;5086837;27;52850;-76
2023/08/15 00:07:42;;;;;;;;;2.00;1.33;;;;;22.13;84.03;101202.56;5082851;27;45587;-76
2023/08/15 00:10:07;;;;;;;;;2.33;2.33;;;;;22.15;84.28;101211.34;5083013;27;45384;-76
2023/08/15 00:12:32;;;;;;;;;0.67;0.67;;;;;22.11;84.35;101199.16;5094923;27;46255;-76
2023/08/15 00:14:58;;;;;;;;;2.00;2.00;;;;;22.12;84.86;101208.91;5092419;27;48789;-75
2023/08/15 00:17:23;;;;;;;;;2.00;2.00;;;;;22.11;85.08;101184.81;5063318;27;45489;-75
2023/08/15 00:19:49;;;;;;;;;3.00;2.00;;;;;22.16;87.64;101204.97;5095732;27;45490;-75
2023/08/15 00:22:15;;;;;;;;;2.00;2.00;;;;;22.12;84.20;101210.78;5086030;27;45566;-75
2023/08/15 00:24:41;;;;;;;;;2.33;2.33;;;;;22.05;83.32;101198.84;5063978;28;45361;-75
2023/08/15 00:27:06;;;;;;;;;2.00;2.00;;;;;22.01;83.45;101195.56;5085296;27;45458;-75
2023/08/15 00:29:31;;;;;;;;;2.00;1.33;;;;;22.00;85.67;101187.59;5082052;27;45598;-75
2023/08/15 00:31:57;;;;;;;;;2.00;2.00;;;;;21.95;84.43;101195.25;5070501;27;47528;-75
2023/08/15 00:34:22;;;;;;;;;2.33;2.33;;;;;21.99;86.73;101215.56;5086741;27;52563;-75
2023/08/15 00:36:47;;;;;;;;;2.67;2.67;;;;;21.92;87.08;101193.69;5086948;27;45299;-75
2023/08/15 00:39:12;;;;;;;;;3.00;3.00;;;;;21.88;87.71;101202.13;5085202;27;45343;-75
2023/08/15 00:41:38;;;;;;;;;3.00;3.00;;;;;21.81;86.30;101205.38;5091358;27;45942;-75
2023/08/15 00:44:03;;;;;;;;;1.00;1.00;;;;;21.76;90.08;101201.34;5087137;27;45317;-75
2023/08/15 00:46:30;;;;;;;;;5.00;2.00;;;;;21.60;88.25;101179.44;5074497;27;45418;-75
2023/08/15 00:48:57;;;;;;;;;2.67;2.67;;;;;21.59;87.59;101186.69;5079944;27;45527;-75
2023/08/15 00:51:23;;;;;;;;;2.00;2.00;;;;;21.56;87.55;101188.81;5072663;27;45718;-74
2023/08/15 00:53:49;;;;;;;;;4.33;3.00;;;;;21.59;87.81;101207.38;5095248;27;45516;-77
2023/08/15 00:56:15;;;;;;;;;3.00;2.00;;;;;21.57;87.83;101190.50;5084929;27;45507;-77
2023/08/15 00:58:42;;;;;;;;;4.33;2.00;;;;;21.59;87.14;101202.84;5081169;27;45450;-75
2023/08/15 01:01:11;;;;;;;;;3.00;2.00;;;;;21.55;90.93;101201.41;5090117;27;46235;-76
2023/08/15 01:03:38;;;;;;;;;3.00;2.00;;;;;21.54;90.46;101202.38;5087402;27;45395;-76
2023/08/15 01:06:04;;;;;;;;;4.33;2.00;;;;;21.58;89.09;101203.81;5087440;27;45370;-75
2023/08/15 01:08:30;;;;;;;;;6.00;2.00;;;;;21.44;88.98;101182.63;5087542;27;45293;-75
2023/08/15 01:10:55;;;;;;;;;3.00;2.00;;;;;21.53;89.97;101202.53;5091894;27;46376;-75
2023/08/15 01:13:25;;;;;;;;;2.00;2.00;;;;;21.52;90.26;101201.69;5080850;27;45336;-75
2023/08/15 01:15:52;;;;;;;;;2.00;2.00;;;;;21.48;90.14;101207.44;5088060;27;45536;-75
2023/08/15 01:18:31;;;;;;;;;3.00;1.00;;;;;21.44;89.63;101211.38;5069675;28;45715;-75
2023/08/15 01:20:59;;;;;;;;;3.00;3.00;;;;;21.38;92.32;101204.69;5066058;27;45466;-75
2023/08/15 01:23:53;;;;;;;;;3.33;3.00;;;;;21.36;90.96;101206.66;5096975;27;45425;-75
2023/08/15 01:26:19;;;;;;;;;2.67;2.00;;;;;21.24;93.18;101205.00;5084989;27;45275;-75
2023/08/15 01:28:44;;;;;;;;;4.00;1.33;;;;;21.28;91.35;101222.59;5084670;27;45553;-75
2023/08/15 01:31:17;;;;;;;;;2.33;2.00;;;;;21.26;92.20;101214.69;5096680;27;53382;-75
2023/08/15 01:33:58;;;;;;;;;2.00;2.00;;;;;21.26;92.35;101222.75;5091032;27;45383;-75
2023/08/15 01:36:33;;;;;;;;;4.33;3.00;;;;;21.29;94.78;101227.00;5091641;27;45626;-75
2023/08/15 01:39:05;;;;;;;;;2.33;2.33;;;;;21.30;93.01;101226.03;5081513;28;45661;-75
2023/08/15 01:41:39;;;;;;;;;2.00;2.00;;;;;21.29;93.50;101218.94;5070787;27;46934;-75
2023/08/15 01:44:09;;;;;;;;;2.00;2.00;;;;;21.33;89.88;101228.47;5097481;27;45288;-75
2023/08/15 01:46:35;;;;;;;;;2.67;2.00;;;;;21.30;90.95;101226.88;5096593;27;45474;-75
2023/08/15 01:49:00;;;;;;;;;2.67;2.67;;;;;21.30;94.96;101226.03;5071020;27;45638;-75
2023/08/15 01:51:26;;;;;;;;;3.00;2.33;;;;;21.30;91.34;101229.56;5087592;27;45566;-75
2023/08/15 01:53:52;;;;;;;;;2.67;1.67;;;;;21.30;93.64;101234.94;5065395;27;45521;-75
2023/08/15 01:56:17;;;;;;;;;2.67;2.00;;;;;21.31;93.37;101238.50;5080640;27;45726;-75
2023/08/15 01:58:42;;;;;;;;;3.00;1.00;;;;;21.38;93.21;101258.50;5080404;27;45398;-75
2023/08/15 02:01:08;;;;;;;;;2.67;2.67;;;;;21.38;91.84;101254.97;5086744;27;45395;-75
2023/08/15 02:03:33;;;;;;;;;2.33;2.33;;;;;21.35;91.18;101256.09;5082133;27;45264;-75
2023/08/15 02:05:58;;;;;;;;;3.00;1.67;;;;;21.38;92.38;101254.97;5086687;27;45345;-75
2023/08/15 02:08:24;;;;;;;;;2.33;2.00;;;;;21.37;93.56;101264.88;5081253;27;45391;-75
2023/08/15 02:10:50;;;;;;;;;3.00;2.00;;;;;21.38;93.10;101263.91;5067837;27;46682;-76
2023/08/15 02:13:16;;;;;;;;;4.33;2.67;;;;;21.33;94.16;101251.81;5061374;27;45363;-75
2023/08/15 02:15:41;;;;;;;;;2.00;2.00;;;;;21.35;93.77;101252.53;5089662;27;46207;-75
2023/08/15 02:18:07;;;;;;;;;2.67;2.00;;;;;21.34;94.57;101253.50;5082841;27;45455;-75
2023/08/15 02:20:32;;;;;;;;;4.67;3.00;;;;;21.38;91.79;101266.59;5081390;27;52640;-75
2023/08/15 02:22:57;;;;;;;;;3.00;2.00;;;;;21.38;93.94;101258.50;5084674;27;45451;-75
2023/08/15 02:25:23;;;;;;;;;2.67;1.33;;;;;21.29;93.97;101249.41;5081667;27;45485;-76
2023/08/15 02:27:49;;;;;;;;;5.00;3.67;;;;;21.33;91.55;101254.50;5081945;27;45368;-75
2023/08/15 02:30:14;;;;;;;;;3.33;2.67;;;;;21.20;92.99;101236.69;5096539;27;45388;-75
2023/08/15 02:32:39;;;;;;;;;3.00;2.33;;;;;21.31;95.45;101257.31;5080254;27;45501;-75
2023/08/15 02:35:05;;;;;;;;;3.00;2.00;;;;;21.34;94.31;101266.97;5070871;27;45368;-76
2023/08/15 02:37:31;;;;;;;;;3.00;3.00;;;;;21.32;92.09;101263.56;5093595;27;45405;-75
2023/08/15 02:39:56;;;;;;;;;2.00;2.00;;;;;21.25;96.44;101247.94;5089894;27;45565;-75
2023/08/15 02:42:21;;;;;;;;;2.00;2.00;;;;;21.30;93.59;101266.41;5098128;27;45439;-75
2023/08/15 02:44:47;;;;;;;;;2.00;2.00;;;;;21.29;96.47;101270.91;5077186;27;45371;-75
2023/08/15 02:47:12;;;;;;;;;2.00;2.00;;;;;21.27;96.26;101272.88;5081144;27;45513;-76
2023/08/15 02:49:38;;;;;;;;;4.67;3.00;;;;;21.27;94.26;101269.31;5068708;27;46203;-75
2023/08/15 02:52:04;;;;;;;;;3.00;2.00;;;;;21.19;92.26;101245.78;5090110;27;45430;-75
2023/08/15 02:54:30;;;;;;;;;3.00;1.67;;;;;21.22;92.98;101253.59;5091164;27;45226;-75
2023/08/15 02:56:55;;;;;;;;;3.33;2.00;;;;;21.19;93.23;101259.22;5067573;27;46103;-75
2023/08/15 02:59:20;;;;;;;;;2.00;2.00;;;;;21.13;95.25;101253.50;5089182;27;46086;-75
2023/08/15 03:01:47;;;;;;;;;3.00;3.00;;;;;21.10;96.09;101264.53;5086423;27;45377;-75
2023/08/15 03:04:12;;;;;;;;;3.00;2.33;;;;;21.07;96.79;101268.25;5084941;27;45288;-75
2023/08/15 03:06:38;;;;;;;;;4.33;3.00;;;;;20.99;94.29;101260.00;5088059;27;45445;-75
2023/08/15 03:09:03;;;;;;;;;3.67;3.00;;;;;20.94;97.21;101267.59;5084920;27;45989;-75
2023/08/15 03:11:29;;;;;;;;;3.33;1.33;;;;;20.91;94.94;101267.84;5088434;27;45551;-74
2023/08/15 03:13:55;;;;;;;;;5.00;3.00;;;;;20.87;98.36;101268.25;5088323;27;45325;-74
2023/08/15 03:16:21;;;;;;;;;4.33;2.00;;;;;20.77;99.11;101255.56;5066567;27;45350;-74
2023/08/15 03:18:47;;;;;;;;;2.67;2.00;;;;;20.73;97.16;101256.78;5079678;27;46494;-75
2023/08/15 03:21:12;;;;;;;;;3.00;2.00;;;;;20.71;98.84;101256.03;5085295;27;45351;-74
2023/08/15 03:23:37;;;;;;;;;3.00;3.00;;;;;20.66;100.00;101247.50;5085792;27;45405;-74
2023/08/15 03:26:04;;;;;;;;;2.00;2.00;;;;;20.64;100.00;101248.63;5089818;27;45206;-74
2023/08/15 03:28:30;;;;;;;;;3.00;2.00;;;;;20.59;98.63;101250.81;5087556;27;45948;-74
2023/08/15 03:30:56;;;;;;;;;6.00;3.00;;;;;20.52;100.00;101246.91;5082420;27;46045;-74
2023/08/15 03:33:22;;;;;;;;;4.00;3.00;;;;;20.51;100.00;101262.22;5096896;27;45595;-75
2023/08/15 03:35:49;;;;;;;;;5.00;3.00;;;;;20.45;100.00;101257.31;5083135;27;46458;-75
2023/08/15 03:38:16;;;;;;;;;2.00;2.00;;;;;20.47;100.00;101278.69;5095580;27;46176;-74
2023/08/15 03:40:47;;;;;;;;;2.67;2.67;;;;;20.32;100.00;101272.72;5098662;27;45411;-75
2023/08/15 03:43:13;;;;;;;;;1.67;1.67;;;;;20.37;100.00;101285.78;5092568;27;45437;-75
2023/08/15 03:45:39;;;;;;;;;2.00;2.00;;;;;20.27;100.00;101289.22;5095880;27;45241;-74
2023/08/15 03:48:06;;;;;;;;;3.00;3.00;;;;;20.29;100.00;101302.50;5089769;27;45332;-75
2023/08/15 03:50:35;;;;;;;;;3.00;3.00;;;;;20.29;100.00;101301.69;5090585;27;45676;-75
2023/08/15 03:53:01;;;;;;;;;5.00;4.00;;;;;20.19;100.00;101280.88;5089686;27;45281;-74
2023/08/15 03:55:30;;;;;;;;;2.33;2.33;;;;;20.25;100.00;101288.44;5097208;27;45526;-75
2023/08/15 03:57:55;;;;;;;;;2.00;2.00;;;;;20.24;100.00;101308.25;5087088;27;45357;-75
2023/08/15 04:00:21;;;;;;;;;6.33;3.33;;;;;20.20;100.00;101301.41;5094919;27;45467;-75
2023/08/15 04:02:47;;;;;;;;;3.67;2.67;;;;;20.17;100.00;101317.75;5086809;27;45545;-74
2023/08/15 04:05:12;;;;;;;;;4.67;4.00;;;;;20.10;100.00;101305.78;5089438;27;45477;-74
2023/08/15 04:07:38;;;;;;;;;4.67;3.00;;;;;20.11;100.00;101326.31;5092257;27;45453;-75
2023/08/15 04:10:05;;;;;;;;;3.00;3.00;;;;;20.09;100.00;101330.91;5091660;27;45292;-75
2023/08/15 04:12:30;;;;;;;;;2.00;2.00;;;;;20.08;100.00;101339.13;5087249;27;45283;-75
2023/08/15 04:14:56;;;;;;;;;5.67;2.33;;;;;20.08;100.00;101337.28;5086103;27;45268;-75
2023/08/15 04:17:21;;;;;;;;;4.00;3.00;;;;;20.03;100.00;101339.47;5095037;27;46881;-75
2023/08/15 04:19:46;;;;;;;;;4.00;3.00;;;;;19.99;100.00;101343.34;5096951;27;45542;-75
2023/08/15 04:22:12;;;;;;;;;1.67;1.00;;;;;19.94;100.00;101334.81;5088186;27;45395;-74
2023/08/15 04:24:37;;;;;;;;;3.67;3.67;;;;;19.96;100.00;101351.66;5097398;27;45277;-75
2023/08/15 04:27:04;;;;;;;;;2.33;2.33;;;;;19.87;100.00;101341.63;5077430;27;45485;-75
2023/08/15 04:29:29;;;;;;;;;2.00;2.00;;;;;19.87;100.00;101357.72;5089149;27;45445;-75
2023/08/15 04:31:55;;;;;;;;;3.00;3.00;;;;;19.83;100.00;101358.09;5066311;27;45428;-74
2023/08/15 04:34:20;;;;;;;;;3.00;3.00;;;;;19.64;100.00;101337.16;5084636;27;45367;-74
2023/08/15 04:36:46;;;;;;;;;2.00;1.33;;;;;19.73;100.00;101361.47;5074036;28;54353;-78
2023/08/15 04:39:12;;;;;;;;;5.00;4.00;;;;;19.70;100.00;101367.06;5086454;27;45446;-74
2023/08/15 04:41:38;;;;;;;;;1.33;1.33;;;;;19.58;100.00;101346.56;5090921;27;45339;-75
2023/08/15 04:44:03;;;;;;;;;3.00;3.00;;;;;19.63;100.00;101351.59;5087453;27;45295;-75
2023/08/15 04:46:29;;;;;;;;;2.00;2.00;;;;;19.61;100.00;101358.88;5091954;27;45707;-74
2023/08/15 04:48:54;;;;;;;;;3.33;3.33;;;;;19.53;100.00;101347.88;5091214;27;45336;-74
2023/08/15 04:51:20;;;;;;;;;3.00;3.00;;;;;19.54;100.00;101371.91;5082811;27;45423;-75
2023/08/15 04:53:45;;;;;;;;;4.67;2.67;;;;;19.49;100.00;101349.94;5091033;27;45485;-74
2023/08/15 04:56:12;;;;;;;;;3.33;3.00;;;;;19.47;100.00;101353.72;5086573;27;46140;-74
2023/08/15 04:58:38;;;;;;;;;6.67;3.00;;;;;19.54;100.00;101363.00;5087256;27;45467;-74
2023/08/15 05:01:03;;;;;;;;;7.00;4.00;;;;;19.54;100.00;101355.81;5070970;27;45461;-74
2023/08/15 05:03:28;;;;;;;;;4.00;2.33;;;;;19.40;100.00;101333.66;5088503;27;45454;-75
2023/08/15 05:05:53;;;;;;;;;3.67;3.00;;;;;19.49;100.00;101357.13;5091314;27;45284;-74
2023/08/15 05:08:19;;;;;;;;;2.00;2.00;;;;;19.51;100.00;101356.03;5086505;27;51741;-74
2023/08/15 05:10:44;;;;;;;;;6.33;3.33;;;;;19.56;100.00;101358.38;5094060;27;45341;-75
2023/08/15 05:13:10;;;;;;;;;3.00;3.00;;;;;19.66;100.00;101378.19;5084024;27;45321;-74
2023/08/15 05:15:35;;;;;;;;;5.00;5.00;;;;;19.66;100.00;101379.03;5086008;27;46374;-74
2023/08/15 05:18:00;;;;;;;;;4.00;4.00;;;;;19.62;100.00;101368.66;5085771;27;45340;-74
2023/08/15 05:20:26;;;;;;;;;3.00;3.00;;;;;19.68;100.00;101373.53;5081975;27;45359;-74
2023/08/15 05:22:51;;;;;;;;;4.00;3.00;;;;;19.68;100.00;101379.78;5090707;27;45537;-74
2023/08/15 05:25:17;;;;;;;;;5.67;3.67;;;;;19.73;100.00;101382.13;5081641;27;47179;-75
2023/08/15 05:27:42;;;;;;;;;5.00;4.00;;;;;19.70;100.00;101376.94;5079416;28;45447;-75
2023/08/15 05:30:08;;;;;;;;;2.67;2.00;;;;;19.73;100.00;101374.91;5084318;27;45345;-75
2023/08/15 05:32:33;;;;;;;;;4.00;2.67;;;;;19.75;100.00;101391.75;5072985;27;45602;-74
2023/08/15 05:34:59;;;;;;;;;2.67;2.67;;;;;19.76;100.00;101384.56;5086411;27;46311;-75
2023/08/15 05:37:24;;;;;;;;;5.00;3.00;;;;;19.77;100.00;101386.25;5088575;27;45628;-75
2023/08/15 05:39:49;;;;;;;;;3.00;3.00;;;;;19.78;100.00;101382.59;5077117;27;48142;-75
2023/08/15 05:42:17;;;;;;;;;4.00;3.00;;;;;19.30;100.00;101316.53;5088335;27;45357;-75
2023/08/15 05:44:45;;;;;;;;;5.33;4.00;;;;;19.76;100.00;101373.81;5097215;27;45408;-75
2023/08/15 05:47:10;;;;;;;;;5.00;3.33;;;;;19.83;100.00;101376.91;5077625;27;45576;-75
2023/08/15 05:49:36;;;;;;;;;2.00;2.00;;;;;19.88;100.00;101385.44;5087283;27;45512;-75
2023/08/15 05:52:02;;;;;;;;;5.00;3.00;;;;;19.87;100.00;101386.41;5098891;27;49232;-75
2023/08/15 05:54:28;;;;;;;;;4.00;3.00;;;;;19.92;100.00;101405.72;5088056;27;45330;-75
2023/08/15 05:56:53;;;;;;;;;4.33;4.33;;;;;19.94;100.00;101412.69;5086937;27;45461;-75
2023/08/15 05:59:18;;;;;;;;;3.00;3.00;;;;;19.92;100.00;101405.72;5097911;27;45258;-75
2023/08/15 06:01:45;;;;;;;;;4.67;2.33;;;;;19.97;100.00;101414.25;5085618;27;45568;-75
2023/08/15 06:04:11;;;;;;;;;4.00;4.00;;;;;19.98;100.00;101416.84;5089076;27;45481;-75
2023/08/15 06:06:36;;;;;;;;;3.00;3.00;;;;;19.99;100.00;101423.91;5095992;27;45233;-75
2023/08/15 06:09:02;;;;;;;;;3.33;3.00;;;;;20.02;100.00;101421.00;5091126;27;45512;-75
2023/08/15 06:11:27;;;;;;;;;6.00;3.33;;;;;19.99;100.00;101415.03;5078547;27;45552;-75
2023/08/15 06:13:53;;;;;;;;;3.00;3.00;;;;;20.06;100.00;101429.66;5082914;27;46302;-76
2023/08/15 06:16:18;;;;;;;;;5.33;2.00;;;;;20.01;100.00;101429.19;5086655;27;45464;-76
2023/08/15 06:18:43;;;;;;;;;6.33;2.67;;;;;20.07;100.00;101442.13;5090692;27;47441;-75
2023/08/15 06:21:09;;;;;;;;;3.00;2.00;;;;;20.04;100.00;101447.75;5081769;27;45532;-75
2023/08/15 06:23:34;;;;;;;;;2.67;2.00;;;;;20.03;100.00;101449.56;5091921;27;46293;-75
2023/08/15 06:26:00;;;;;;;;;3.00;3.00;;;;;19.89;100.00;101430.97;5088835;27;45463;-76
2023/08/15 06:28:25;;;;;;;;;2.00;2.00;;;;;20.03;100.00;101444.19;5084460;27;45470;-75
2023/08/15 06:30:50;;;;;;;;;4.67;2.67;;;;;20.00;100.00;101446.25;5079750;27;45336;-76
2023/08/15 06:33:16;;;;;;;;;5.00;3.33;;;;;20.02;100.00;101441.63;5081526;27;48780;-76
2023/08/15 06:35:41;;;;;;;;;3.00;3.00;;;;;20.14;100.00;101465.72;5087269;27;45338;-76
2023/08/15 06:38:06;;;;;;;;;3.00;3.00;;;;;20.07;100.00;101452.88;5085115;27;45547;-76
2023/08/15 06:40:32;;;;;;;;;2.00;2.00;;;;;20.17;100.00;101473.53;5085398;27;45494;-76
2023/08/15 06:42:57;;;;;;;;;4.00;3.00;;;;;20.19;100.00;101473.41;5087953;27;45398;-75
2023/08/15 06:45:23;;;;;;;;;4.33;2.00;;;;;20.21;100.00;101464.28;5080945;27;45484;-75
2023/08/15 06:47:49;;;;;;;;;3.33;3.00;;;;;20.27;100.00;101471.03;5081558;27;45415;-76
2023/08/15 06:50:15;;;;;;;;;2.00;2.00;;;;;20.34;100.00;101476.78;5084680;27;45277;-76
2023/08/15 06:52:40;;;;;;;;;4.33;3.33;;;;;20.42;100.00;101479.75;5092940;27;46857;-76
2023/08/15 06:55:06;;;;;;;;;3.33;3.00;;;;;20.42;100.00;101490.50;5092644;27;45269;-76
2023/08/15 06:57:32;;;;;;;;;3.33;3.33;;;;;20.40;100.00;101485.25;5092081;27;45499;-76
2023/08/15 06:59:57;;;;;;;;;6.33;2.67;;;;;20.55;100.00;101488.59;5079279;27;45455;-76
2023/08/15 07:02:23;;;;;;;;;5.33;4.00;;;;;20.62;100.00;101496.03;5073405;27;49075;-76
2023/08/15 07:04:48;;;;;;;;;4.00;3.00;;;;;20.63;100.00;101503.13;5090751;27;45339;-76
2023/08/15 07:07:14;;;;;;;;;3.00;2.00;;;;;20.71;100.00;101502.53;5080747;27;45301;-76
2023/08/15 07:09:40;;;;;;;;;3.33;2.00;;;;;20.70;100.00;101479.31;5089442;27;45357;-75
2023/08/15 07:12:05;;;;;;;;;3.00;2.67;;;;;20.75;100.00;101495.91;5063979;28;47139;-76
2023/08/15 07:14:34;;;;;;;;;4.00;4.00;;;;;20.76;100.00;101494.94;5088843;27;45371;-76
2023/08/15 07:17:00;;;;;;;;;4.00;4.00;;;;;20.86;100.00;101495.94;5095830;27;45288;-75
2023/08/15 07:19:25;;;;;;;;;3.67;3.00;;;;;20.98;100.00;101504.84;5079888;27;45363;-75
2023/08/15 07:21:50;;;;;;;;;2.00;2.00;;;;;20.99;100.00;101493.13;5088019;27;46052;-76
2023/08/15 07:24:17;;;;;;;;;2.67;2.00;;;;;21.10;100.00;101485.97;5079064;27;49492;-75
2023/08/15 07:26:42;;;;;;;;;2.33;2.00;;;;;21.25;100.00;101505.38;5081568;27;45316;-76
2023/08/15 07:29:08;;;;;;;;;3.00;3.00;;;;;21.24;100.00;101499.13;5080593;27;45560;-76
2023/08/15 07:31:33;;;;;;;;;3.00;3.00;;;;;21.41;98.22;101505.00;5094470;27;46008;-76
2023/08/15 07:33:59;;;;;;;;;3.67;2.00;;;;;21.38;97.74;101491.78;5080566;27;45424;-76
2023/08/15 07:36:24;;;;;;;;;2.00;2.00;;;;;21.61;96.99;101517.69;5085184;27;45447;-76
2023/08/15 07:38:49;;;;;;;;;3.67;3.33;;;;;21.74;96.69;101518.38;5078470;27;45613;-75
2023/08/15 07:41:14;;;;;;;;;1.33;1.33;;;;;21.78;96.37;101498.31;5091191;27;46136;-75
2023/08/15 07:43:40;;;;;;;;;5.00;3.00;;;;;21.96;94.25;101506.72;5092362;27;45379;-75
2023/08/15 07:46:05;;;;;;;;;6.33;4.33;;;;;22.09;95.02;101516.34;5090497;27;45470;-76
2023/08/15 07:48:31;;;;;;;;;3.00;3.00;;;;;22.15;92.29;101510.44;5081966;27;45690;-76
2023/08/15 07:50:56;;;;;;;;;4.00;3.33;;;;;22.31;94.53;101512.69;5096908;27;48837;-76
2023/08/15 07:53:23;;;;;;;;;2.33;2.33;;;;;22.44;91.32;101516.06;5084059;27;45371;-76
2023/08/15 07:55:48;;;;;;;;;5.33;4.00;;;;;22.56;91.86;101519.53;5085546;27;45430;-76
2023/08/15 07:58:14;;;;;;;;;3.67;2.67;;;;;22.61;92.26;101509.22;5087675;28;45240;-76
2023/08/15 08:00:39;;;;;;;;;4.00;2.33;;;;;22.76;90.66;101510.59;5090460;27;45408;-76
2023/08/15 08:03:05;;;;;;;;;7.00;3.00;;;;;22.88;87.82;101514.94;5101115;27;45259;-77
2023/08/15 08:05:31;;;;;;;;;3.00;3.00;;;;;22.95;87.52;101505.31;5092199;27;45209;-76
2023/08/15 08:07:56;;;;;;;;;4.00;4.00;;;;;23.08;86.20;101507.78;5092666;27;45374;-76
2023/08/15 08:10:22;;;;;;;;;3.33;2.33;;;;;23.22;86.40;101519.06;5098650;27;45291;-78
2023/08/15 08:12:47;;;;;;;;;2.33;2.33;;;;;23.21;86.38;101487.66;5097673;27;45722;-77
2023/08/15 08:15:13;;;;;;;;;2.00;2.00;;;;;23.40;84.63;101505.78;5111464;27;45993;-77
2023/08/15 08:17:38;;;;;;;;;2.00;1.00;;;;;23.55;83.94;101508.97;5114720;27;44710;-78
2023/08/15 08:20:12;;;;;;;;;0.33;0.33;;;;;23.56;82.43;101500.72;5099586;27;46124;-77
2023/08/15 08:22:39;;;;;;;;;5.67;3.67;;;;;23.72;82.09;101492.94;5101231;27;45296;-79
2023/08/15 08:25:13;;;;;;;;;2.00;2.00;;;;;23.93;83.30;101508.16;5103116;27;45709;-77
2023/08/15 08:27:38;;;;;;;;;2.33;2.33;;;;;24.09;84.19;101501.22;5107717;27;45520;-78
2023/08/15 08:30:06;;;;;;;;;1.00;1.00;;;;;24.22;81.36;101496.41;5085319;27;47276;-77
2023/08/15 08:32:32;;;;;;;;;4.00;3.00;;;;;24.33;79.44;101488.16;5096419;27;45454;-77
2023/08/15 08:34:58;;;;;;;;;3.00;2.00;;;;;24.48;78.81;101490.38;5084343;27;45371;-77
2023/08/15 08:37:24;;;;;;;;;5.00;3.00;;;;;24.60;79.40;101492.81;5100942;27;45213;-77
2023/08/15 08:39:49;;;;;;;;;3.33;2.00;;;;;24.55;77.94;101472.56;5082568;27;45356;-77
2023/08/15 08:42:14;;;;;;;;;6.00;3.00;;;;;24.76;78.56;101476.81;5084726;27;45426;-77
2023/08/15 08:44:41;;;;;;;;;3.67;2.00;;;;;24.81;77.04;101473.63;5093524;27;45412;-77
2023/08/15 08:47:07;;;;;;;;;3.00;1.67;;;;;24.94;73.67;101485.03;5063381;28;45237;-76
2023/08/15 08:49:33;;;;;;;;;3.00;3.00;;;;;24.82;73.50;101460.00;5082149;27;45473;-77
2023/08/15 08:52:00;;;;;;;;;3.33;2.67;;;;;24.79;72.91;101483.78;5082720;27;45429;-76
2023/08/15 08:54:25;;;;;;;;;3.67;2.00;;;;;24.80;76.52;101488.19;5081383;27;45467;-77
2023/08/15 08:56:55;;;;;;;;;3.00;3.00;;;;;24.82;74.00;101484.38;5081635;27;45366;-77
2023/08/15 08:59:22;;;;;;;;;2.67;2.00;;;;;24.85;76.01;101485.91;5084662;27;46217;-77
2023/08/15 09:01:48;;;;;;;;;3.00;2.00;;;;;24.92;75.53;101476.22;5085020;27;45590;-77
2023/08/15 09:04:14;;;;;;;;;5.00;2.33;;;;;25.17;76.14;101497.19;5084813;27;45505;-77
2023/08/15 09:06:39;;;;;;;;;4.00;2.00;;;;;25.18;75.75;101474.53;5096800;27;45393;-78
2023/08/15 09:09:04;;;;;;;;;2.33;2.33;;;;;25.25;72.39;101499.16;5082546;27;52527;-78
2023/08/15 09:11:34;;;;;;;;;3.33;3.33;;;;;25.14;70.75;101494.78;5079855;27;45415;-78
2023/08/15 09:14:03;;;;;;;;;1.00;1.00;;;;;25.22;73.22;101500.31;5082848;27;45460;-78
2023/08/15 09:16:29;;;;;;;;;2.00;1.00;;;;;25.25;73.02;101500.00;5076019;27;45545;-78
2023/08/15 09:18:54;;;;;;;;;2.00;2.00;;;;;25.27;73.98;101498.00;5081033;27;46053;-77
2023/08/15 09:21:19;;;;;;;;;4.33;2.67;;;;;25.29;73.75;101504.09;5086553;27;55015;-77
2023/08/15 09:23:45;;;;;;;;;2.67;2.67;;;;;25.24;71.51;101492.88;5083312;27;45472;-77
2023/08/15 09:26:12;;;;;;;;;2.00;2.00;;;;;25.04;69.13;101483.13;5088010;27;45308;-78
2023/08/15 09:28:39;;;;;;;;;1.67;1.67;;;;;25.12;72.82;101498.63;5083718;27;46047;-78
2023/08/15 09:31:05;;;;;;;;;3.00;3.00;;;;;25.06;72.63;101494.69;5088984;27;45597;-78
2023/08/15 09:33:30;;;;;;;;;2.00;2.00;;;;;25.13;73.57;101494.94;5083140;27;45376;-78
2023/08/15 09:35:56;;;;;;;;;4.00;2.00;;;;;25.14;73.05;101497.47;5063074;27;45955;-78
2023/08/15 09:38:21;;;;;;;;;2.33;2.33;;;;;25.14;71.79;101502.91;5092149;27;47393;-78
2023/08/15 09:40:49;;;;;;;;;3.00;3.00;;;;;25.06;73.16;101494.69;5080712;27;45474;-78
2023/08/15 09:43:17;;;;;;;;;3.33;2.00;;;;;25.05;71.47;101497.53;5084535;27;45572;-78
2023/08/15 09:45:43;;;;;;;;;2.00;2.00;;;;;25.00;72.09;101506.06;5090878;27;45536;-78
2023/08/15 09:48:09;;;;;;;;;2.33;2.00;;;;;25.05;73.38;101511.06;5086231;27;45459;-78
2023/08/15 09:50:34;;;;;;;;;5.00;3.00;;;;;25.14;73.84;101488.50;5080990;28;45319;-78
2023/08/15 09:53:03;;;;;;;;;3.00;2.00;;;;;25.37;71.09;101500.63;5084536;28;45218;-78
2023/08/15 09:55:29;;;;;;;;;2.33;2.00;;;;;25.36;69.35;101512.47;5085822;27;45229;-78
2023/08/15 09:57:54;;;;;;;;;4.00;2.67;;;;;25.18;69.46;101500.75;5085150;27;45379;-78
2023/08/15 10:00:20;;;;;;;;;2.00;2.00;;;;;25.19;69.96;101508.72;5098926;27;45358;-78
2023/08/15 10:02:59;;;;;;;;;2.67;2.67;;;;;25.30;68.74;101519.34;5090680;27;45390;-78
2023/08/15 10:05:30;;;;;;;;;3.00;2.00;;;;;24.99;68.31;101490.00;5083664;27;45276;-78
2023/08/15 10:07:57;;;;;;;;;2.00;2.00;;;;;25.22;71.54;101500.31;5081372;27;45450;-78
2023/08/15 10:10:24;;;;;;;;;3.00;3.00;;;;;25.27;73.02;101510.66;5081792;27;45372;-78
2023/08/15 10:12:51;;;;;;;;;4.00;3.00;;;;;25.25;69.46;101507.28;5083550;27;45344;-78
2023/08/15 10:15:18;;;;;;;;;5.00;3.67;;;;;25.29;70.63;101506.81;5083356;27;45302;-78
2023/08/15 10:17:45;;;;;;;;;3.00;3.00;;;;;25.58;70.47;101509.41;5083163;27;45217;-78
2023/08/15 10:20:13;;;;;;;;;2.33;2.33;;;;;25.88;69.36;101506.31;5077614;27;45310;-78
2023/08/15 10:22:42;;;;;;;;;4.33;2.00;;;;;25.88;68.65;101497.38;5086189;27;46380;-78
2023/08/15 10:25:24;;;;;;;;;4.00;1.67;;;;;25.74;66.76;101493.31;5084849;27;45272;-78
2023/08/15 10:27:54;;;;;;;;;3.00;2.67;;;;;25.81;68.27;101513.38;5091723;27;45637;-78
2023/08/15 10:30:33;;;;;;;;;2.00;2.00;;;;;25.76;68.52;101518.41;5083703;27;45457;-78
2023/08/15 10:33:00;;;;;;;;;5.67;2.00;;;;;25.75;67.55;101502.31;5090482;27;45277;-78
2023/08/15 10:35:27;;;;;;;;;2.33;2.33;;;;;25.89;70.05;101518.88;5098855;27;45225;-79
2023/08/15 10:37:56;;;;;;;;;2.00;2.00;;;;;26.11;65.88;101511.31;5101467;27;46383;-78
2023/08/15 10:40:27;;;;;;;;;2.00;2.00;;;;;26.24;67.13;101503.66;5074414;28;45457;-78
2023/08/15 10:43:00;;;;;;;;;2.00;2.00;;;;;26.67;65.68;101506.34;5100038;27;45293;-79
2023/08/15 10:45:26;;;;;;;;;3.67;2.33;;;;;26.87;62.43;101507.88;5085587;27;45501;-78
2023/08/15 10:47:55;;;;;;;;;2.00;2.00;;;;;26.82;63.14;101510.22;5084672;27;46851;-78
2023/08/15 10:50:22;;;;;;;;;3.33;2.33;;;;;26.73;62.18;101518.44;5069578;28;45442;-78
2023/08/15 10:52:58;;;;;;;;;2.00;2.00;;;;;26.64;63.64;101513.97;5085091;27;45352;-78
2023/08/15 10:55:27;;;;;;;;;3.00;2.00;;;;;26.63;62.29;101504.13;5091600;27;45359;-78
2023/08/15 10:57:55;;;;;;;;;2.00;2.00;;;;;26.71;61.95;101518.59;5089776;27;45289;-78
2023/08/15 11:00:22;;;;;;;;;2.00;2.00;;;;;26.69;62.09;101530.63;5086174;27;45380;-78
2023/08/15 11:02:48;;;;;;;;;2.00;2.00;;;;;26.63;61.07;101513.13;5097080;27;45341;-78
2023/08/15 11:05:14;;;;;;;;;2.00;2.00;;;;;26.76;62.60;101515.41;5079003;27;45354;-78
2023/08/15 11:07:41;;;;;;;;;4.00;3.00;;;;;26.89;61.96;101505.00;5094230;27;45825;-79
2023/08/15 11:10:08;;;;;;;;;3.00;1.00;;;;;26.89;60.62;101514.00;5092654;27;45508;-78
2023/08/15 11:12:34;;;;;;;;;2.67;1.00;;;;;26.89;62.10;101500.44;5096009;27;45306;-78
2023/08/15 11:14:59;;;;;;;;;2.00;2.00;;;;;27.07;60.54;101513.94;5086357;27;45304;-78
2023/08/15 11:17:25;;;;;;;;;0.33;0.33;;;;;27.20;60.69;101516.19;5099353;27;46057;-79